Time;durP1;ratioP1;P1;durP2;ratioP2;P2;SDS_P1;SDS_P2;PMS_P1;PMS_P2;Temp;Humidity;BMP_temperature;BMP_pressure;BME280_temperature;BME280_humidity;BME280_pressure;Samples;Min_cycle;Max_cycle;Signal;HPM_P1;HPM_P2
2023/07/24 00:01:28;;;;;;;5.40;4.90;;;;;;;;;;5135825;27;20103;-76
2023/07/24 00:03:56;;;;;;;5.65;4.93;;;;;;;;;;5135438;27;20472;-76
2023/07/24 00:06:22;;;;;;;5.07;4.55;;;;;;;;;;5136053;27;20030;-76
2023/07/24 00:08:48;;;;;;;9.23;5.38;;;;;;;;;;5135346;27;20031;-76
2023/07/24 00:11:14;;;;;;;5.10;4.60;;;;;;;;;;5135360;27;20451;-76
2023/07/24 00:13:40;;;;;;;5.60;5.07;;;;;;;;;;5135358;27;20092;-76
2023/07/24 00:16:07;;;;;;;5.18;4.57;;;;;;;;;;5135216;27;20485;-76
2023/07/24 00:18:33;;;;;;;5.90;5.25;;;;;;;;;;5135274;27;20469;-76
2023/07/24 00:21:00;;;;;;;5.70;5.05;;;;;;;;;;5135304;27;20523;-76
2023/07/24 00:23:26;;;;;;;5.57;4.97;;;;;;;;;;5135188;27;20457;-76
2023/07/24 00:25:53;;;;;;;5.38;4.72;;;;;;;;;;5135144;27;20030;-76
2023/07/24 00:28:19;;;;;;;5.88;5.13;;;;;;;;;;5135035;27;20042;-76
2023/07/24 00:30:45;;;;;;;5.45;4.95;;;;;;;;;;5134967;27;20060;-76
2023/07/24 00:33:11;;;;;;;5.30;4.80;;;;;;;;;;5134931;27;20503;-76
2023/07/24 00:35:37;;;;;;;5.30;4.80;;;;;;;;;;5134698;27;20540;-76
2023/07/24 00:38:06;;;;;;;5.35;4.85;;;;;;;;;;5134968;27;20027;-76
2023/07/24 00:40:32;;;;;;;5.70;5.20;;;;;;;;;;5134925;27;20141;-76
2023/07/24 00:42:59;;;;;;;6.07;4.80;;;;;;;;;;5134746;27;20376;-77
2023/07/24 00:45:25;;;;;;;5.72;5.00;;;;;;;;;;5134690;27;20130;-76
2023/07/24 00:47:51;;;;;;;6.55;4.85;;;;;;;;;;5134753;27;20034;-76
2023/07/24 00:50:18;;;;;;;5.65;5.05;;;;;;;;;;5134611;27;20023;-76
2023/07/24 00:52:44;;;;;;;5.65;5.07;;;;;;;;;;5134606;27;20027;-76
2023/07/24 00:55:13;;;;;;;6.47;5.28;;;;;;;;;;5134553;27;20028;-76
2023/07/24 00:57:39;;;;;;;6.03;5.40;;;;;;;;;;5134704;27;20019;-76
2023/07/24 01:00:06;;;;;;;5.57;5.07;;;;;;;;;;5134395;27;20031;-76
2023/07/24 01:02:32;;;;;;;5.47;4.97;;;;;;;;;;5134554;27;20098;-76
2023/07/24 01:04:59;;;;;;;5.38;4.88;;;;;;;;;;5134480;27;20023;-76
2023/07/24 01:07:28;;;;;;;4.93;4.43;;;;;;;;;;5134370;27;20046;-76
2023/07/24 01:09:54;;;;;;;5.90;4.97;;;;;;;;;;5134237;27;20051;-76
2023/07/24 01:15:02;;;;;;;5.35;4.85;;;;;;;;;;5069103;28;20376;-76
2023/07/24 01:17:29;;;;;;;5.78;5.18;;;;;;;;;;5069255;28;20495;-76
2023/07/24 01:19:56;;;;;;;6.00;5.07;;;;;;;;;;5069253;28;20399;-76
2023/07/24 01:27:46;;;;;;;5.32;4.82;;;;;;;;;;5109595;27;20329;-76
2023/07/24 01:30:12;;;;;;;5.40;4.90;;;;;;;;;;5109773;28;20554;-76
2023/07/24 01:32:42;;;;;;;6.05;5.07;;;;;;;;;;5109678;28;20427;-76
2023/07/24 01:35:08;;;;;;;5.72;5.13;;;;;;;;;;5109680;28;20034;-76
2023/07/24 01:37:35;;;;;;;6.07;5.47;;;;;;;;;;5109463;28;20031;-76
2023/07/24 01:40:05;;;;;;;6.00;5.40;;;;;;;;;;5109479;28;20020;-76
2023/07/24 01:42:31;;;;;;;6.10;5.47;;;;;;;;;;5109365;28;20534;-76
2023/07/24 01:44:57;;;;;;;5.95;5.32;;;;;;;;;;5109684;28;20031;-76
2023/07/24 01:47:24;;;;;;;5.55;5.03;;;;;;;;;;5109558;28;20466;-76
2023/07/24 01:49:50;;;;;;;5.93;5.32;;;;;;;;;;5109219;28;20024;-76
2023/07/24 01:52:23;;;;;;;6.18;5.57;;;;;;;;;;5109596;28;20051;-76
2023/07/24 01:54:50;;;;;;;6.35;5.75;;;;;;;;;;5109190;28;20485;-76
2023/07/24 01:57:16;;;;;;;5.90;5.30;;;;;;;;;;5109295;28;20488;-76
2023/07/24 01:59:43;;;;;;;6.20;5.60;;;;;;;;;;5109111;28;20032;-76
2023/07/24 02:02:10;;;;;;;6.28;5.68;;;;;;;;;;5109102;28;20035;-75
2023/07/24 02:04:36;;;;;;;5.95;5.38;;;;;;;;;;5108963;28;20032;-75
2023/07/24 02:07:04;;;;;;;5.97;5.38;;;;;;;;;;5109075;28;20022;-76
2023/07/24 02:09:31;;;;;;;6.32;5.72;;;;;;;;;;5108929;28;20059;-76
2023/07/24 02:11:57;;;;;;;6.03;5.43;;;;;;;;;;5108771;28;20509;-75
2023/07/24 02:14:24;;;;;;;5.95;5.35;;;;;;;;;;5108807;28;20028;-76
2023/07/24 02:16:50;;;;;;;6.00;5.40;;;;;;;;;;5108804;28;20027;-76
2023/07/24 02:19:16;;;;;;;5.70;5.15;;;;;;;;;;5108699;28;20137;-76
2023/07/24 02:21:49;;;;;;;6.20;5.60;;;;;;;;;;5108850;28;20154;-76
2023/07/24 02:24:15;;;;;;;6.20;5.60;;;;;;;;;;5108734;28;20542;-76
2023/07/24 02:26:41;;;;;;;6.95;5.75;;;;;;;;;;5108483;28;20520;-76
2023/07/24 02:29:07;;;;;;;6.93;6.25;;;;;;;;;;5108543;28;20031;-76
2023/07/24 02:31:34;;;;;;;6.28;5.68;;;;;;;;;;5108503;28;20037;-76
2023/07/24 02:34:00;;;;;;;6.28;5.68;;;;;;;;;;5108433;28;20047;-76
2023/07/24 02:36:26;;;;;;;6.13;5.57;;;;;;;;;;5108648;28;20580;-77
2023/07/24 02:38:52;;;;;;;6.57;5.88;;;;;;;;;;5096172;28;20435;-76
2023/07/24 02:41:19;;;;;;;6.15;5.55;;;;;;;;;;5094808;28;20034;-76
2023/07/24 02:43:45;;;;;;;5.97;5.47;;;;;;;;;;5094704;28;20036;-76
2023/07/24 02:46:11;;;;;;;6.70;6.00;;;;;;;;;;5094592;28;20039;-76
2023/07/24 02:48:40;;;;;;;6.40;5.80;;;;;;;;;;5094461;28;20099;-76
2023/07/24 02:51:06;;;;;;;6.85;6.15;;;;;;;;;;5094584;28;20032;-76
2023/07/24 02:53:32;;;;;;;6.97;6.28;;;;;;;;;;5094449;28;20073;-76
2023/07/24 02:55:59;;;;;;;6.72;6.13;;;;;;;;;;5094728;28;20374;-76
2023/07/24 02:58:25;;;;;;;6.70;6.00;;;;;;;;;;5094330;28;20099;-76
2023/07/24 03:00:51;;;;;;;6.82;6.10;;;;;;;;;;5094454;28;20477;-76
2023/07/24 03:03:17;;;;;;;6.95;6.25;;;;;;;;;;5094343;28;20043;-77
2023/07/24 03:05:43;;;;;;;6.72;6.13;;;;;;;;;;5094214;28;20115;-76
2023/07/24 03:08:10;;;;;;;7.07;6.38;;;;;;;;;;5094319;28;20539;-76
2023/07/24 03:10:36;;;;;;;7.70;6.90;;;;;;;;;;5094267;28;20032;-76
2023/07/24 03:13:02;;;;;;;7.07;6.38;;;;;;;;;;5094153;28;20028;-76
2023/07/24 03:15:34;;;;;;;6.97;6.28;;;;;;;;;;5094086;28;20024;-76
2023/07/24 03:18:02;;;;;;;7.10;6.40;;;;;;;;;;5094306;28;20025;-76
2023/07/24 03:20:28;;;;;;;7.15;6.45;;;;;;;;;;5093986;28;20027;-76
2023/07/24 03:22:54;;;;;;;7.40;6.70;;;;;;;;;;5093928;28;20027;-76
2023/07/24 03:25:21;;;;;;;6.88;6.18;;;;;;;;;;5093686;28;20020;-75
2023/07/24 03:27:47;;;;;;;7.35;6.65;;;;;;;;;;5093762;28;20541;-76
2023/07/24 03:30:13;;;;;;;7.80;7.00;;;;;;;;;;5093832;28;20512;-76
2023/07/24 03:32:40;;;;;;;6.97;6.28;;;;;;;;;;5093789;28;20095;-76
2023/07/24 03:35:06;;;;;;;8.27;6.60;;;;;;;;;;5093711;28;20588;-76
2023/07/24 03:37:32;;;;;;;7.55;6.75;;;;;;;;;;5093777;28;20036;-76
2023/07/24 03:39:59;;;;;;;7.68;6.93;;;;;;;;;;5093638;28;20381;-76
2023/07/24 03:42:26;;;;;;;7.05;6.43;;;;;;;;;;5093679;28;20032;-76
2023/07/24 03:44:52;;;;;;;7.22;6.53;;;;;;;;;;5093560;28;20036;-76
2023/07/24 03:47:18;;;;;;;7.72;6.60;;;;;;;;;;5093553;28;20020;-76
2023/07/24 03:49:44;;;;;;;7.10;6.40;;;;;;;;;;5092384;28;20058;-75
2023/07/24 03:52:10;;;;;;;7.13;6.43;;;;;;;;;;5093549;28;20024;-76
2023/07/24 03:54:37;;;;;;;7.65;6.85;;;;;;;;;;5093490;28;20036;-76
2023/07/24 03:57:03;;;;;;;8.10;7.30;;;;;;;;;;5093458;28;20541;-76
2023/07/24 03:59:29;;;;;;;8.32;7.50;;;;;;;;;;5093600;28;20036;-76
2023/07/24 04:01:55;;;;;;;8.07;7.28;;;;;;;;;;5093260;28;20032;-76
2023/07/24 04:04:22;;;;;;;7.63;6.80;;;;;;;;;;5093201;28;20078;-75
2023/07/24 04:06:48;;;;;;;7.50;6.80;;;;;;;;;;5092957;28;20031;-76
2023/07/24 04:09:17;;;;;;;7.82;7.03;;;;;;;;;;5093025;28;20050;-76
2023/07/24 04:11:44;;;;;;;7.60;6.90;;;;;;;;;;5093122;28;20103;-76
2023/07/24 04:14:10;;;;;;;8.18;7.28;;;;;;;;;;5092960;28;20024;-75
2023/07/24 04:16:36;;;;;;;8.27;7.47;;;;;;;;;;5092836;28;20496;-76
2023/07/24 04:19:02;;;;;;;7.50;6.80;;;;;;;;;;5092866;28;20481;-76
2023/07/24 04:21:28;;;;;;;7.28;6.63;;;;;;;;;;5092862;28;20024;-76
2023/07/24 04:23:54;;;;;;;7.88;7.07;;;;;;;;;;5092864;28;20028;-76
2023/07/24 04:26:21;;;;;;;7.63;6.90;;;;;;;;;;5092559;28;20570;-76
2023/07/24 04:28:47;;;;;;;8.15;7.20;;;;;;;;;;5092844;28;20036;-76
2023/07/24 04:31:13;;;;;;;7.90;7.10;;;;;;;;;;5092612;28;20493;-76
2023/07/24 04:33:39;;;;;;;7.40;6.70;;;;;;;;;;5092839;28;20043;-76
2023/07/24 04:36:06;;;;;;;7.57;6.88;;;;;;;;;;5092574;28;20587;-76
2023/07/24 04:38:32;;;;;;;7.78;6.97;;;;;;;;;;5092553;28;20111;-76
2023/07/24 04:41:01;;;;;;;7.63;6.93;;;;;;;;;;5092456;28;20032;-76
2023/07/24 04:43:27;;;;;;;7.80;7.00;;;;;;;;;;5092673;28;20046;-76
2023/07/24 04:45:53;;;;;;;7.90;7.10;;;;;;;;;;5092360;28;20031;-76
2023/07/24 04:48:19;;;;;;;8.18;7.45;;;;;;;;;;5092567;28;20065;-76
2023/07/24 04:50:45;;;;;;;7.90;7.13;;;;;;;;;;5092416;28;20028;-76
2023/07/24 04:53:11;;;;;;;9.60;7.25;;;;;;;;;;5092386;28;20028;-76
2023/07/24 04:55:38;;;;;;;7.70;6.97;;;;;;;;;;5092107;28;20529;-76
2023/07/24 04:58:04;;;;;;;7.80;6.95;;;;;;;;;;5092228;28;20032;-76
2023/07/24 05:00:32;;;;;;;7.40;6.70;;;;;;;;;;5091823;28;20046;-76
2023/07/24 05:02:59;;;;;;;7.50;6.80;;;;;;;;;;5092039;28;20016;-76
2023/07/24 05:05:35;;;;;;;7.85;7.05;;;;;;;;;;5092304;28;20031;-77
2023/07/24 05:08:05;;;;;;;7.95;7.10;;;;;;;;;;5091658;28;20016;-77
2023/07/24 05:10:45;;;;;;;7.90;7.10;;;;;;;;;;5092460;28;20020;-75
2023/07/24 05:13:11;;;;;;;8.07;7.28;;;;;;;;;;5090099;28;20095;-76
2023/07/24 05:15:37;;;;;;;7.90;7.20;;;;;;;;;;5092433;28;20377;-76
2023/07/24 05:18:03;;;;;;;7.47;6.78;;;;;;;;;;5091834;28;20020;-76
2023/07/24 05:20:47;;;;;;;7.70;6.90;;;;;;;;;;5091788;28;20462;-76
2023/07/24 05:23:13;;;;;;;7.63;6.82;;;;;;;;;;5091850;28;20363;-76
2023/07/24 05:25:39;;;;;;;7.38;6.68;;;;;;;;;;5091644;28;20085;-76
2023/07/24 05:28:05;;;;;;;7.50;6.78;;;;;;;;;;5091890;28;20024;-76
2023/07/24 05:30:31;;;;;;;7.50;6.80;;;;;;;;;;5091924;28;20490;-76
2023/07/24 05:32:57;;;;;;;8.18;7.38;;;;;;;;;;5091808;28;20036;-76
2023/07/24 05:35:27;;;;;;;7.40;6.70;;;;;;;;;;5092183;28;20526;-76
2023/07/24 05:38:08;;;;;;;7.50;6.80;;;;;;;;;;5091622;28;20036;-76
2023/07/24 05:40:38;;;;;;;8.23;7.43;;;;;;;;;;5091826;28;20042;-76
2023/07/24 05:43:07;;;;;;;8.38;7.57;;;;;;;;;;5091714;28;20058;-76
2023/07/24 05:45:35;;;;;;;8.00;7.18;;;;;;;;;;5091818;28;20032;-76
2023/07/24 05:48:11;;;;;;;8.02;7.22;;;;;;;;;;5091731;28;20474;-76
2023/07/24 05:50:47;;;;;;;;;;;;;;;;;;;;;
2023/07/24 05:53:31;;;;;;;8.65;7.75;;;;;;;;;;5087332;28;20039;-76
2023/07/24 05:55:59;;;;;;;8.00;7.22;;;;;;;;;;5091603;28;20032;-76
2023/07/24 05:58:32;;;;;;;10.80;8.00;;;;;;;;;;5091669;28;20467;-76
2023/07/24 06:01:19;;;;;;;9.05;8.07;;;;;;;;;;5091914;28;20034;-76
2023/07/24 06:03:54;;;;;;;8.70;7.80;;;;;;;;;;5072490;28;20527;-76
2023/07/24 06:09:09;;;;;;;10.60;7.95;;;;;;;;;;5076405;28;20024;-75
2023/07/24 06:11:35;;;;;;;9.13;8.10;;;;;;;;;;5091891;28;20054;-75
2023/07/24 06:14:08;;;;;;;8.82;7.93;;;;;;;;;;5085981;28;20020;-76
2023/07/24 06:16:47;;;;;;;8.93;7.75;;;;;;;;;;5085373;28;20036;-76
2023/07/24 06:19:19;;;;;;;9.15;7.85;;;;;;;;;;5071919;28;20059;-76
2023/07/24 06:21:48;;;;;;;10.70;8.43;;;;;;;;;;5075818;28;20432;-75
2023/07/24 06:24:14;;;;;;;8.90;8.00;;;;;;;;;;5074480;28;20043;-76
2023/07/24 06:26:40;;;;;;;8.98;7.63;;;;;;;;;;5057549;28;20056;-76
2023/07/24 06:29:28;;;;;;;10.48;8.15;;;;;;;;;;5075083;28;20074;-76
2023/07/24 06:32:30;;;;;;;;;;;;;;;;;;;;;
2023/07/24 06:38:44;;;;;;;9.32;8.00;;;;;;;;;;4952358;29;20114;-67
2023/07/24 06:41:21;;;;;;;9.57;7.90;;;;;;;;;;5090192;28;20485;-67
2023/07/24 06:43:50;;;;;;;9.38;8.40;;;;;;;;;;5093025;28;20524;-67
2023/07/24 06:46:34;;;;;;;10.20;8.10;;;;;;;;;;5092748;28;20028;-67
2023/07/24 06:49:32;;;;;;;;;;;;;;;;;;;;;
2023/07/24 06:52:01;;;;;;;9.55;8.45;;;;;;;;;;5092611;28;20016;-67
2023/07/24 06:57:32;;;;;;;10.48;8.75;;;;;;;;;;5092946;28;20032;-67
2023/07/24 07:00:03;;;;;;;10.20;8.57;;;;;;;;;;5087039;28;20044;-67
2023/07/24 07:02:33;;;;;;;9.25;8.20;;;;;;;;;;5094522;28;20042;-67
2023/07/24 07:04:59;;;;;;;11.25;8.35;;;;;;;;;;5094446;28;20043;-66
2023/07/24 07:07:26;;;;;;;9.45;8.10;;;;;;;;;;5077832;28;20482;-66
2023/07/24 07:09:52;;;;;;;8.90;7.80;;;;;;;;;;5074147;28;20468;-66
2023/07/24 07:12:18;;;;;;;8.98;8.07;;;;;;;;;;5074308;28;20077;-73
2023/07/24 07:14:44;;;;;;;8.77;7.75;;;;;;;;;;5075401;28;20033;-75
2023/07/24 07:17:45;;;;;;;8.63;7.80;;;;;;;;;;5083972;28;20382;-70
2023/07/24 07:20:12;;;;;;;9.00;7.65;;;;;;;;;;5069702;28;20036;-70
2023/07/24 07:22:39;;;;;;;7.88;7.07;;;;;;;;;;5087259;28;20501;-73
2023/07/24 07:25:05;;;;;;;9.60;7.72;;;;;;;;;;5080945;28;20060;-74
2023/07/24 07:27:34;;;;;;;7.85;7.05;;;;;;;;;;5087192;28;20488;-72
2023/07/24 07:30:00;;;;;;;9.10;7.53;;;;;;;;;;5092607;28;20032;-73
2023/07/24 07:32:29;;;;;;;9.07;7.15;;;;;;;;;;5073636;28;20455;-72
2023/07/24 07:34:56;;;;;;;9.82;7.82;;;;;;;;;;5073305;28;20016;-70
2023/07/24 07:37:22;;;;;;;7.65;6.85;;;;;;;;;;5083108;28;20028;-71
2023/07/24 07:39:54;;;;;;;8.40;6.93;;;;;;;;;;5076333;28;20085;-74
2023/07/24 07:42:20;;;;;;;14.45;7.07;;;;;;;;;;5088501;28;20113;-71
2023/07/24 07:44:46;;;;;;;8.95;6.70;;;;;;;;;;5092757;28;20474;-71
2023/07/24 07:47:13;;;;;;;7.65;6.70;;;;;;;;;;5086222;28;20060;-71
2023/07/24 07:49:40;;;;;;;8.32;6.88;;;;;;;;;;5072683;28;20052;-74
2023/07/24 07:52:06;;;;;;;7.78;6.97;;;;;;;;;;5077771;28;20016;-70
2023/07/24 07:54:32;;;;;;;8.70;6.72;;;;;;;;;;5090430;28;20062;-74
2023/07/24 07:56:59;;;;;;;8.02;7.10;;;;;;;;;;5076288;28;20031;-70
2023/07/24 07:59:57;;;;;;;9.93;6.82;;;;;;;;;;5089695;28;20028;-71
2023/07/24 08:02:23;;;;;;;8.13;6.90;;;;;;;;;;4991801;28;20853;-67
2023/07/24 08:05:21;;;;;;;9.57;6.82;;;;;;;;;;4998672;28;20165;-74
2023/07/24 08:07:49;;;;;;;9.50;7.20;;;;;;;;;;5079401;28;20071;-73
2023/07/24 08:10:29;;;;;;;11.27;7.18;;;;;;;;;;5079907;28;20036;-76
2023/07/24 08:12:58;;;;;;;14.35;7.55;;;;;;;;;;5084371;28;20028;-72
2023/07/24 08:15:25;;;;;;;10.07;7.18;;;;;;;;;;5087403;28;20466;-71
2023/07/24 08:17:51;;;;;;;9.15;7.40;;;;;;;;;;5087894;28;20071;-70
2023/07/24 08:20:17;;;;;;;8.40;7.10;;;;;;;;;;5089690;28;20067;-69
2023/07/24 08:22:43;;;;;;;10.20;7.18;;;;;;;;;;5088951;28;20488;-69
2023/07/24 08:25:10;;;;;;;9.68;7.15;;;;;;;;;;5082472;28;20111;-66
2023/07/24 08:34:28;;;;;;;12.55;7.25;;;;;;;;;;5009058;28;20034;-68
2023/07/24 08:36:54;;;;;;;20.65;9.35;;;;;;;;;;4994804;28;20048;-74
2023/07/24 09:01:02;;;;;;;13.80;7.95;;;;;;;;;;4992242;28;20032;-69
2023/07/24 09:03:59;;;;;;;12.73;7.45;;;;;;;;;;5008783;28;20030;-69
2023/07/24 09:24:51;;;;;;;18.60;8.17;;;;;;;;;;5006392;28;20465;-72
2023/07/24 09:27:37;;;;;;;14.95;7.90;;;;;;;;;;5021065;28;20956;-74
2023/07/24 09:40:09;;;;;;;11.73;7.45;;;;;;;;;;4949634;29;20025;-70
2023/07/24 09:42:40;;;;;;;11.00;7.77;;;;;;;;;;4950360;29;20553;-75
2023/07/24 09:45:10;;;;;;;17.13;8.35;;;;;;;;;;4950239;28;20035;-72
2023/07/24 09:48:14;;;;;;;;;;;;;;;;;;;;;
2023/07/24 09:54:14;;;;;;;14.60;8.23;;;;;;;;;;5084353;28;20024;-68
2023/07/24 10:02:56;;;;;;;12.27;8.32;;;;;;;;;;5067695;28;20025;-64
2023/07/24 10:21:14;;;;;;;10.68;7.72;;;;;;;;;;4949270;28;20059;-67
2023/07/24 10:30:46;;;;;;;13.45;8.32;;;;;;;;;;4986010;28;20113;-68
2023/07/24 10:33:41;;;;;;;10.70;8.25;;;;;;;;;;4980068;28;20041;-67
2023/07/24 10:52:24;;;;;;;10.45;7.65;;;;;;;;;;5025086;28;20025;-69
2023/07/24 10:55:24;;;;;;;9.05;7.30;;;;;;;;;;5029590;28;20034;-77
2023/07/24 10:58:02;;;;;;;9.98;7.43;;;;;;;;;;5020313;28;20037;-71
2023/07/24 11:00:44;;;;;;;12.75;7.55;;;;;;;;;;5012681;28;20049;-68
2023/07/24 11:03:11;;;;;;;12.18;7.55;;;;;;;;;;5018507;28;20047;-68
2023/07/24 11:24:25;;;;;;;9.90;7.50;;;;;;;;;;4984923;28;20088;-68
2023/07/24 11:49:16;;;;;;;12.68;7.60;;;;;;;;;;5011819;28;20867;-68
2023/07/24 11:51:46;;;;;;;9.80;7.90;;;;;;;;;;4998774;28;20505;-67
2023/07/24 11:54:24;;;;;;;9.02;7.50;;;;;;;;;;5000047;28;20080;-64
2023/07/24 12:00:04;;;;;;;10.73;7.22;;;;;;;;;;4960824;28;20035;-67
2023/07/24 12:03:04;;;;;;;15.88;8.38;;;;;;;;;;4995065;28;20070;-67
2023/07/24 12:05:41;;;;;;;10.70;7.63;;;;;;;;;;4956797;28;20141;-65
2023/07/24 12:08:16;;;;;;;10.65;7.55;;;;;;;;;;4990391;28;20762;-65
2023/07/24 12:13:55;;;;;;;7.90;6.85;;;;;;;;;;4996112;28;20040;-64
2023/07/24 12:19:32;;;;;;;8.80;7.00;;;;;;;;;;5072359;28;20029;-64
2023/07/24 12:24:43;;;;;;;11.27;7.72;;;;;;;;;;5098146;28;20039;-64
2023/07/24 12:27:18;;;;;;;9.55;7.45;;;;;;;;;;5076428;28;20056;-64
2023/07/24 12:36:11;;;;;;;9.38;7.68;;;;;;;;;;4940146;28;20028;-65
2023/07/24 12:45:07;;;;;;;9.15;6.85;;;;;;;;;;4951988;29;20575;-65
2023/07/24 12:57:02;;;;;;;16.65;9.55;;;;;;;;;;4831829;29;20034;-64
2023/07/24 12:59:29;;;;;;;49.05;19.48;;;;;;;;;;4832697;29;20144;-63
2023/07/24 13:01:55;;;;;;;52.45;19.30;;;;;;;;;;4838841;29;20074;-63
2023/07/24 13:07:28;;;;;;;43.83;17.55;;;;;;;;;;4850001;29;20041;-63
2023/07/24 13:09:56;;;;;;;41.30;18.15;;;;;;;;;;4837875;29;20094;-62
2023/07/24 13:15:31;;;;;;;39.40;17.27;;;;;;;;;;5085650;28;20580;-64
2023/07/24 13:18:17;;;;;;;;;;;;;;;;;;;;;
2023/07/24 13:20:43;;;;;;;35.70;16.80;;;;;;;;;;5091761;28;20020;-64
2023/07/24 13:23:10;;;;;;;31.60;15.98;;;;;;;;;;5092089;28;20032;-66
2023/07/24 13:25:36;;;;;;;28.27;14.68;;;;;;;;;;5090132;28;20031;-63
2023/07/24 13:28:17;;;;;;;32.55;15.95;;;;;;;;;;5082262;28;20032;-63
2023/07/24 13:30:53;;;;;;;30.65;15.25;;;;;;;;;;5088834;28;20051;-63
2023/07/24 13:33:21;;;;;;;33.08;15.02;;;;;;;;;;5090078;28;20028;-63
2023/07/24 13:36:07;;;;;;;29.48;14.75;;;;;;;;;;5086668;28;20054;-62
2023/07/24 13:38:34;;;;;;;25.70;14.05;;;;;;;;;;5091448;28;20112;-63
2023/07/24 13:41:04;;;;;;;24.75;14.02;;;;;;;;;;5092737;28;20074;-63
2023/07/24 13:43:43;;;;;;;27.17;14.10;;;;;;;;;;5112005;28;20023;-62
2023/07/24 13:55:39;;;;;;;22.80;13.00;;;;;;;;;;5029016;28;20524;-62
2023/07/24 14:42:22;;;;;;;16.70;10.85;;;;;;;;;;5031665;28;20060;-70
2023/07/24 17:39:04;;;;;;;;;;;;;;;;;;;;;
